Time;durP1;ratioP1;P1;durP2;ratioP2;P2;SDS_P1;SDS_P2;PMS_P1;PMS_P2;Temp;Humidity;BMP_temperature;BMP_pressure;BME280_temperature;BME280_humidity;BME280_pressure;Samples;Min_cycle;Max_cycle;Signal;HPM_P1;HPM_P2
2022/09/08 00:01:39;;;;;;;1.45;1.35;;;;;;;19.83;56.08;94811.19;2616837;54;20214;-78
2022/09/08 00:04:08;;;;;;;2.03;1.63;;;;;;;20.28;54.42;94803.22;2617611;47;20168;-77
2022/09/08 00:06:40;;;;;;;2.25;2.15;;;;;;;20.39;53.92;94798.19;2617252;54;20672;-77
2022/09/08 00:09:09;;;;;;;2.05;1.77;;;;;;;20.57;53.17;94809.66;2616592;47;20728;-77
2022/09/08 00:11:41;;;;;;;2.10;1.88;;;;;;;20.39;52.84;94763.69;2616932;54;20149;-77
2022/09/08 00:14:12;;;;;;;2.47;2.27;;;;;;;19.88;52.17;94804.03;2618211;39;20784;-79
2022/09/08 00:16:42;;;;;;;1.88;1.77;;;;;;;18.60;55.51;94795.16;2617830;47;20145;-78
2022/09/08 00:19:11;;;;;;;1.93;1.83;;;;;;;17.65;60.02;94812.50;2618244;39;20562;-78
2022/09/08 00:21:42;;;;;;;2.90;2.00;;;;;;;17.36;60.10;94814.38;2617500;54;20149;-77
2022/09/08 00:24:11;;;;;;;4.00;2.10;;;;;;;16.32;64.60;94798.22;2617493;54;20222;-78
2022/09/08 00:26:40;;;;;;;1.87;1.77;;;;;;;17.17;63.84;94809.91;2617430;47;20152;-78
2022/09/08 00:29:09;;;;;;;2.10;2.00;;;;;;;17.59;60.07;94803.13;2617608;47;20687;-78
2022/09/08 00:31:40;;;;;;;3.40;2.10;;;;;;;18.50;60.16;94792.25;2617493;47;20203;-77
2022/09/08 00:34:09;;;;;;;2.27;2.07;;;;;;;18.40;58.39;94775.72;2617953;39;20575;-77
2022/09/08 00:36:38;;;;;;;2.40;2.20;;;;;;;19.57;56.58;94800.44;2617401;54;20145;-77
2022/09/08 00:39:09;;;;;;;2.63;2.53;;;;;;;18.55;56.96;94787.97;2618042;39;20581;-77
2022/09/08 00:41:39;;;;;;;2.03;1.93;;;;;;;18.23;58.33;94805.00;2617286;47;20664;-77
2022/09/08 00:44:51;;;;;;;1.97;1.87;;;;;;;16.78;62.16;94794.50;2617424;54;20153;-78
2022/09/08 00:47:25;;;;;;;1.90;1.70;;;;;;;16.82;63.01;94817.41;2618031;54;20165;-78
2022/09/08 00:49:59;;;;;;;1.80;1.70;;;;;;;16.59;63.51;94781.38;2619475;47;20157;-77
2022/09/08 00:52:31;;;;;;;1.80;1.70;;;;;;;16.91;62.36;94769.59;2622786;54;20136;-77
2022/09/08 00:55:02;;;;;;;2.10;2.00;;;;;;;17.20;62.58;94814.25;2624616;39;20581;-77
2022/09/08 00:57:31;;;;;;;1.67;1.57;;;;;;;17.64;60.98;94811.06;2619703;47;20157;-77
2022/09/08 01:00:00;;;;;;;1.43;1.37;;;;;;;17.56;61.07;94779.47;2618869;54;20149;-78
2022/09/08 01:02:29;;;;;;;1.73;1.63;;;;;;;18.75;58.17;94770.13;2618122;54;20192;-77
2022/09/08 01:05:01;;;;;;;1.70;1.60;;;;;;;19.27;56.64;94783.16;2618231;54;20170;-78
2022/09/08 01:13:14;;;;;;;1.60;1.55;;;;;;;19.68;55.56;94790.38;2620088;47;20164;-77
2022/09/08 01:15:43;;;;;;;1.98;1.88;;;;;;;19.56;53.74;94796.13;2618027;47;20153;-78
2022/09/08 01:18:11;;;;;;;1.63;1.52;;;;;;;18.43;57.30;94808.00;2618188;54;20684;-77
2022/09/08 01:20:47;;;;;;;1.70;1.60;;;;;;;17.61;59.82;94801.00;2618440;47;20164;-77
2022/09/08 01:23:44;;;;;;;1.87;1.77;;;;;;;17.93;59.81;94788.34;2618118;54;20156;-77
2022/09/08 01:26:37;;;;;;;1.80;1.70;;;;;;;17.53;59.24;94752.25;2618102;47;20176;-77
2022/09/08 01:29:10;;;;;;;2.40;2.20;;;;;;;17.74;59.85;94793.97;2618525;47;20283;-77
2022/09/08 01:31:43;;;;;;;1.77;1.67;;;;;;;17.64;60.54;94808.19;2618528;47;20161;-77
2022/09/08 01:34:13;;;;;;;1.67;1.57;;;;;;;17.17;60.88;94786.31;2618265;54;20156;-77
2022/09/08 01:36:41;;;;;;;1.70;1.60;;;;;;;18.42;59.75;94812.28;2618740;47;20399;-76
2022/09/08 01:39:10;;;;;;;2.03;1.88;;;;;;;18.35;59.07;94813.66;2618092;47;20187;-77
2022/09/08 01:41:39;;;;;;;1.70;1.67;;;;;;;18.83;58.29;94798.13;2618298;47;20191;-77
2022/09/08 01:44:10;;;;;;;1.88;1.77;;;;;;;19.12;56.26;94785.28;2618252;54;20157;-78
2022/09/08 01:46:39;;;;;;;1.88;1.77;;;;;;;19.12;56.54;94802.53;2617791;47;20203;-76
2022/09/08 01:49:07;;;;;;;1.95;1.85;;;;;;;;;;2618400;54;20183;-78
2022/09/08 01:51:36;;;;;;;2.30;2.20;;;;;;;19.31;54.11;94803.25;2620240;47;20172;-77
2022/09/08 01:54:05;;;;;;;1.60;1.58;;;;;;;18.45;57.32;94811.56;2618434;47;20178;-76
2022/09/08 01:56:35;;;;;;;2.63;2.42;;;;;;;18.25;58.35;94808.63;2618361;39;20594;-78
2022/09/08 01:59:04;;;;;;;1.67;1.55;;;;;;;18.27;59.35;94817.22;2618127;54;20157;-78
2022/09/08 02:01:35;;;;;;;3.22;2.72;;;;;;;17.96;59.38;94804.13;2618465;54;20208;-78
2022/09/08 02:04:05;;;;;;;1.83;1.73;;;;;;;17.48;60.44;94793.03;2618403;54;20164;-79
2022/09/08 02:06:33;;;;;;;2.63;2.20;;;;;;;17.81;60.92;94759.63;2618258;54;20180;-77
2022/09/08 02:09:02;;;;;;;2.10;2.00;;;;;;;18.39;58.63;94782.88;2618363;39;20593;-78
2022/09/08 02:11:31;;;;;;;3.10;2.90;;;;;;;18.43;57.89;94788.66;2621364;39;20589;-78
2022/09/08 02:14:00;;;;;;;2.77;2.57;;;;;;;18.15;58.61;94793.50;2618846;54;20176;-77
2022/09/08 02:16:29;;;;;;;2.55;2.35;;;;;;;17.40;60.24;94767.88;2619870;54;20195;-77
2022/09/08 02:19:01;;;;;;;4.40;1.80;;;;;;;17.33;62.15;94795.75;2621720;39;20536;-77
2022/09/08 02:21:30;;;;;;;2.80;2.60;;;;;;;17.38;61.12;94776.47;2618604;39;20579;-78
2022/09/08 02:23:59;;;;;;;2.87;2.33;;;;;;;16.57;63.49;94767.06;2620407;47;20149;-77
2022/09/08 02:26:30;;;;;;;3.47;2.20;;;;;;;16.61;64.26;94790.69;2620914;54;20232;-77
2022/09/08 02:28:59;;;;;;;2.13;2.03;;;;;;;16.36;64.46;94763.25;2618379;54;20149;-77
2022/09/08 02:31:30;;;;;;;1.93;1.83;;;;;;;16.65;63.63;94785.06;2618126;47;20157;-80
2022/09/08 02:34:02;;;;;;;3.60;3.10;;;;;;;16.31;64.50;94762.47;2618262;54;20141;-77
2022/09/08 02:36:30;;;;;;;1.90;1.80;;;;;;;16.10;66.51;94789.38;2618234;47;20151;-79
2022/09/08 02:38:59;;;;;;;1.97;1.87;;;;;;;16.08;65.88;94775.03;2618567;47;20149;-78
2022/09/08 02:41:29;;;;;;;2.43;2.33;;;;;;;16.08;66.25;94754.31;2618433;39;20279;-78
2022/09/08 02:43:58;;;;;;;2.23;2.13;;;;;;;16.23;65.72;94779.53;2618325;54;20156;-77
2022/09/08 02:46:27;;;;;;;2.40;2.30;;;;;;;16.79;64.66;94766.63;2618803;54;20155;-77
2022/09/08 02:49:05;;;;;;;2.20;2.10;;;;;;;17.72;60.87;94787.50;2618445;46;20178;-77
2022/09/08 02:51:35;;;;;;;2.80;2.57;;;;;;;17.94;60.16;94787.66;2619451;54;20183;-79
2022/09/08 02:54:03;;;;;;;2.20;2.10;;;;;;;18.52;58.66;94783.66;2620634;54;20187;-78
2022/09/08 02:56:32;;;;;;;2.87;2.53;;;;;;;19.05;56.06;94761.59;2620745;52;20207;-78
2022/09/08 02:59:02;;;;;;;2.63;2.20;;;;;;;18.77;56.45;94787.34;2620668;54;20164;-78
2022/09/08 03:01:31;;;;;;;2.50;2.30;;;;;;;17.79;58.23;94757.47;2619737;54;20161;-77
2022/09/08 03:04:01;;;;;;;2.90;2.20;;;;;;;17.24;60.36;94774.19;2618543;54;20247;-78
2022/09/08 03:06:32;;;;;;;2.43;2.33;;;;;;;16.50;62.12;94749.13;2618276;46;20152;-77
2022/09/08 03:09:01;;;;;;;2.43;2.23;;;;;;;16.24;64.39;94785.97;2618414;47;20145;-78
2022/09/08 03:11:31;;;;;;;4.47;2.70;;;;;;;15.44;67.76;94784.09;2618748;39;20212;-77
2022/09/08 03:13:59;;;;;;;1.90;1.80;;;;;;;14.89;69.62;94774.59;2618753;54;20153;-77
2022/09/08 03:16:29;;;;;;;1.90;1.80;;;;;;;14.71;70.98;94774.28;2618360;47;20156;-78
2022/09/08 03:18:58;;;;;;;1.93;1.77;;;;;;;15.85;68.38;94781.88;2618118;47;20149;-77
2022/09/08 03:21:26;;;;;;;2.07;1.90;;;;;;;17.18;63.37;94756.25;2618161;47;20133;-78
2022/09/08 03:23:58;;;;;;;3.47;2.30;;;;;;;18.18;59.23;94755.53;2618143;47;20149;-78
2022/09/08 03:26:26;;;;;;;3.00;2.00;;;;;;;18.77;57.86;94764.41;2618171;54;20152;-78
2022/09/08 03:28:55;;;;;;;2.27;2.17;;;;;;;19.16;56.88;94793.91;2618120;47;20157;-78
2022/09/08 03:31:25;;;;;;;1.63;1.53;;;;;;;18.55;56.71;94796.56;2618139;47;20179;-78
2022/09/08 03:33:55;;;;;;;2.63;2.43;;;;;;;18.06;57.81;94756.19;2617920;54;20149;-78
2022/09/08 03:36:23;;;;;;;3.20;3.00;;;;;;;19.16;56.53;94802.50;2617946;54;20161;-78
2022/09/08 03:38:52;;;;;;;1.98;1.88;;;;;;;19.20;56.52;94799.66;2620848;47;20184;-77
2022/09/08 03:41:24;;;;;;;2.67;2.47;;;;;;;18.21;56.66;94762.72;2621540;54;20157;-77
2022/09/08 03:43:53;;;;;;;2.30;2.10;;;;;;;18.00;58.40;94784.81;2619162;31;20707;-77
2022/09/08 03:46:22;;;;;;;2.00;1.90;;;;;;;17.37;59.54;94784.31;2617697;47;20156;-77
2022/09/08 03:48:51;;;;;;;2.60;2.40;;;;;;;16.92;61.68;94791.78;2618102;39;20208;-77
2022/09/08 03:51:25;;;;;;;2.53;2.43;;;;;;;16.63;62.42;94767.88;2617600;54;20149;-76
2022/09/08 03:54:46;;;;;;;2.27;2.17;;;;;;;17.94;60.48;94781.91;2617591;47;20148;-76
2022/09/08 03:56:47;;;;;;;2.50;2.40;;;;;;;18.15;58.48;94788.50;2617916;47;20152;-78
2022/09/08 03:59:16;;;;;;;2.30;2.20;;;;;;;16.74;59.54;94745.09;2617567;47;20161;-78
2022/09/08 04:01:45;;;;;;;1.87;1.77;;;;;;;15.79;65.16;94796.06;2617771;47;20177;-77
2022/09/08 04:04:14;;;;;;;2.10;1.97;;;;;;;15.46;67.17;94800.50;2617411;47;20156;-77
2022/09/08 04:06:42;;;;;;;2.40;2.30;;;;;;;15.78;67.85;94806.03;2617891;47;20149;-77
2022/09/08 04:09:11;;;;;;;2.70;2.50;;;;;;;17.27;62.95;94812.16;2617522;54;20176;-78
2022/09/08 04:11:40;;;;;;;2.10;2.00;;;;;;;18.10;59.51;94787.03;2617804;54;20160;-79
2022/09/08 04:14:13;;;;;;;2.03;1.93;;;;;;;19.10;55.94;94808.97;2617789;47;20267;-77
2022/09/08 04:16:42;;;;;;;1.83;1.73;;;;;;;19.11;55.24;94778.84;2620051;39;20580;-78
2022/09/08 04:19:12;;;;;;;2.33;2.17;;;;;;;19.56;54.10;94790.38;2620780;54;20175;-78
2022/09/08 04:21:41;;;;;;;2.58;2.40;;;;;;;19.96;53.32;94809.03;2620661;47;20149;-77
2022/09/08 04:24:10;;;;;;;1.88;1.77;;;;;;;19.74;53.73;94796.13;2620328;54;20161;-78
2022/09/08 04:26:38;;;;;;;1.67;1.63;;;;;;;19.15;55.57;94796.06;2618707;54;20404;-77
2022/09/08 04:29:07;;;;;;;4.03;2.45;;;;;;;18.36;57.25;94809.38;2618150;47;20191;-77
2022/09/08 04:31:39;;;;;;;2.40;2.30;;;;;;;17.63;60.13;94811.75;2618417;54;20149;-77
2022/09/08 04:34:08;;;;;;;2.67;2.47;;;;;;;17.55;60.28;94777.31;2618571;47;20149;-77
2022/09/08 04:36:36;;;;;;;2.47;2.37;;;;;;;17.32;61.66;94797.19;2618821;39;20641;-77
2022/09/08 04:39:05;;;;;;;2.20;2.10;;;;;;;17.61;62.75;94803.16;2618263;47;20220;-76
2022/09/08 04:41:34;;;;;;;2.60;2.43;;;;;;;18.20;59.91;94804.28;2617882;47;20168;-77
2022/09/08 04:44:04;;;;;;;1.80;1.67;;;;;;;18.54;58.90;94809.47;2618425;47;20207;-77
2022/09/08 04:46:34;;;;;;;2.43;2.30;;;;;;;19.17;56.09;94801.81;2618913;39;20593;-78
2022/09/08 04:49:06;;;;;;;2.85;2.65;;;;;;;19.76;54.06;94796.13;2619743;47;20152;-76
2022/09/08 04:51:35;;;;;;;2.30;2.10;;;;;;;19.51;54.98;94788.94;2619200;54;20156;-77
2022/09/08 04:54:04;;;;;;;2.90;2.70;;;;;;;19.57;55.14;94805.47;2624373;47;20157;-77
2022/09/08 04:56:33;;;;;;;2.53;2.35;;;;;;;19.29;56.76;94798.22;2619295;47;20137;-77
2022/09/08 04:59:03;;;;;;;6.00;2.58;;;;;;;18.76;58.42;94791.66;2618687;54;20196;-77
2022/09/08 05:01:34;;;;;;;2.50;2.30;;;;;;;18.17;60.22;94774.19;2622508;47;20199;-76
2022/09/08 05:04:06;;;;;;;3.13;2.90;;;;;;;18.00;61.63;94812.75;2618666;54;20695;-78
2022/09/08 05:06:36;;;;;;;2.53;2.33;;;;;;;17.92;61.01;94807.69;2618646;54;20165;-77
2022/09/08 05:09:06;;;;;;;5.10;2.40;;;;;;;18.51;58.74;94776.47;2619079;47;20153;-77
2022/09/08 05:11:36;;;;;;;2.13;2.03;;;;;;;19.41;56.17;94809.72;2618774;47;20164;-76
2022/09/08 05:14:06;;;;;;;1.90;1.75;;;;;;;19.76;54.89;94796.13;2618742;46;20157;-75
2022/09/08 05:16:35;;;;;;;1.98;1.88;;;;;;;20.18;53.92;94820.53;2618754;54;20180;-77
2022/09/08 05:19:08;;;;;;;3.03;2.83;;;;;;;20.31;53.40;94830.56;2618918;46;20208;-77
2022/09/08 05:21:38;;;;;;;2.90;2.70;;;;;;;20.58;52.19;94834.84;2618676;54;20391;-77
2022/09/08 05:24:08;;;;;;;2.72;2.45;;;;;;;20.67;51.93;94823.28;2619392;54;20144;-76
2022/09/08 05:26:36;;;;;;;2.60;2.42;;;;;;;20.65;52.01;94814.66;2618995;54;20149;-77
2022/09/08 05:29:05;;;;;;;3.17;2.90;;;;;;;20.84;51.57;94819.63;2620718;54;20204;-79
2022/09/08 05:31:34;;;;;;;2.40;2.30;;;;;;;20.84;51.17;94818.91;2621959;47;20666;-76
2022/09/08 05:34:06;;;;;;;2.83;2.63;;;;;;;21.05;51.61;94839.66;2622783;39;20551;-77
2022/09/08 05:36:37;;;;;;;2.67;2.47;;;;;;;20.87;51.71;94820.34;2621712;54;20153;-78
2022/09/08 05:39:07;;;;;;;2.47;2.28;;;;;;;21.07;51.29;94817.34;2619184;47;20145;-78
2022/09/08 05:41:37;;;;;;;2.55;2.45;;;;;;;21.27;51.13;94830.97;2618765;47;20189;-78
2022/09/08 05:44:05;;;;;;;2.75;2.60;;;;;;;21.27;50.54;94814.38;2618744;47;20157;-77
2022/09/08 05:46:35;;;;;;;2.83;2.72;;;;;;;21.64;50.51;94835.03;2618435;46;20223;-77
2022/09/08 05:49:06;;;;;;;3.05;2.95;;;;;;;21.25;49.65;94836.72;2618405;54;20177;-77
2022/09/08 05:51:35;;;;;;;2.13;2.03;;;;;;;21.05;49.97;94834.63;2618382;54;20199;-78
2022/09/08 05:54:04;;;;;;;3.55;2.90;;;;;;;21.03;49.93;94837.53;2618797;54;20240;-78
2022/09/08 05:56:33;;;;;;;2.40;2.30;;;;;;;20.24;51.61;94832.00;2619028;47;20133;-78
2022/09/08 05:59:02;;;;;;;3.28;3.08;;;;;;;20.44;53.30;94837.75;2618900;54;20149;-77
2022/09/08 06:01:33;;;;;;;3.40;3.17;;;;;;;21.04;51.99;94841.13;2618800;51;20205;-77
2022/09/08 06:04:02;;;;;;;2.85;2.65;;;;;;;21.12;50.98;94810.13;2618625;54;20244;-78
2022/09/08 06:06:35;;;;;;;3.08;2.72;;;;;;;20.94;50.57;94841.88;2619084;39;20557;-77
2022/09/08 06:09:06;;;;;;;2.40;2.30;;;;;;;21.31;49.99;94847.50;2624128;47;20145;-77
2022/09/08 06:11:38;;;;;;;3.25;3.05;;;;;;;21.32;50.30;94835.22;2617270;39;20634;-77
2022/09/08 06:14:06;;;;;;;3.63;3.33;;;;;;;21.75;49.35;94855.13;2615641;54;20164;-77
2022/09/08 06:16:35;;;;;;;3.58;2.60;;;;;;;21.65;49.04;94838.63;2617584;54;20647;-80
2022/09/08 06:19:05;;;;;;;3.15;2.95;;;;;;;21.85;48.14;94852.91;2616179;47;20215;-77
2022/09/08 06:21:36;;;;;;;2.95;2.85;;;;;;;21.68;48.80;94847.97;2618940;47;20148;-77
2022/09/08 06:24:07;;;;;;;3.45;3.25;;;;;;;22.04;48.65;94838.34;2620693;54;20149;-78
2022/09/08 06:26:52;;;;;;;3.15;2.90;;;;;;;22.27;46.99;94842.47;2612898;54;20141;-77
2022/09/08 06:32:35;;;;;;;3.25;3.05;;;;;;;22.53;45.93;94833.56;2618514;47;20157;-78
2022/09/08 06:35:09;;;;;;;3.25;2.70;;;;;;;22.47;47.23;94827.84;2618659;47;20152;-78
2022/09/08 06:37:47;;;;;;;2.40;2.30;;;;;;;22.24;45.84;94861.97;2618223;54;20248;-78
2022/09/08 06:40:43;;;;;;;2.47;2.03;;;;;;;22.14;45.82;94867.81;2618405;54;20165;-79
2022/09/08 06:43:43;;;;;;;2.70;2.53;;;;;;;21.87;47.56;94880.97;2618089;47;20152;-77
2022/09/08 06:46:21;;;;;;;2.22;2.13;;;;;;;21.92;46.89;94854.28;2619075;39;20537;-79
2022/09/08 06:48:51;;;;;;;5.05;2.45;;;;;;;22.28;47.08;94843.88;2618943;39;20589;-78
2022/09/08 06:51:31;;;;;;;2.70;2.08;;;;;;;22.19;45.23;94833.88;2618505;47;20637;-76
2022/09/08 06:54:22;;;;;;;5.63;2.70;;;;;;;22.06;46.34;94829.69;2618205;54;20172;-77
2022/09/08 06:57:04;;;;;;;2.97;2.78;;;;;;;21.88;47.26;94865.84;2618069;54;20183;-76
2022/09/08 06:59:47;;;;;;;2.30;2.20;;;;;;;22.07;46.63;94862.84;2618365;54;20157;-76
2022/09/08 07:02:32;;;;;;;4.65;3.15;;;;;;;22.18;47.37;94841.09;2619125;47;20259;-77
